sensor_id;sensor_type;location;lat;lon;timestamp;temperature;humidity
4314;DHT22;2170;48.794;9.182;2023-06-26T16:52:06;28.20;79.20
4314;DHT22;2170;48.794;9.182;2023-06-26T16:54:36;28.20;80.00
4314;DHT22;2170;48.794;9.182;2023-06-26T16:57:05;28.10;80.50
4314;DHT22;2170;48.794;9.182;2023-06-26T16:59:33;28.10;77.50
4314;DHT22;2170;48.794;9.182;2023-06-26T17:02:05;28.20;77.00
4314;DHT22;2170;48.794;9.182;2023-06-26T17:04:35;28.00;76.50
4314;DHT22;2170;48.794;9.182;2023-06-26T17:07:06;28.40;75.30
4314;DHT22;2170;48.794;9.182;2023-06-26T17:09:35;28.30;74.70
4314;DHT22;2170;48.794;9.182;2023-06-26T17:12:16;28.40;74.20
4314;DHT22;2170;48.794;9.182;2023-06-26T17:14:54;28.20;71.90
4314;DHT22;2170;48.794;9.182;2023-06-26T17:17:23;28.10;71.10
4314;DHT22;2170;48.794;9.182;2023-06-26T17:19:51;27.80;70.80
4314;DHT22;2170;48.794;9.182;2023-06-26T17:22:22;27.90;70.70
4314;DHT22;2170;48.794;9.182;2023-06-26T17:24:52;27.90;69.70
4314;DHT22;2170;48.794;9.182;2023-06-26T17:27:24;28.00;69.30
4314;DHT22;2170;48.794;9.182;2023-06-26T17:30:00;27.80;67.40
4314;DHT22;2170;48.794;9.182;2023-06-26T17:32:32;27.40;67.00
4314;DHT22;2170;48.794;9.182;2023-06-26T17:35:00;27.80;67.20
4314;DHT22;2170;48.794;9.182;2023-06-26T17:37:36;27.70;67.70
4314;DHT22;2170;48.794;9.182;2023-06-26T17:40:06;27.60;68.00
4314;DHT22;2170;48.794;9.182;2023-06-26T17:42:48;27.40;68.50
4314;DHT22;2170;48.794;9.182;2023-06-26T17:45:17;27.30;68.80
4314;DHT22;2170;48.794;9.182;2023-06-26T17:47:54;27.30;68.40
4314;DHT22;2170;48.794;9.182;2023-06-26T17:50:33;27.00;68.70
4314;DHT22;2170;48.794;9.182;2023-06-26T17:53:22;26.90;69.20
4314;DHT22;2170;48.794;9.182;2023-06-26T17:55:51;26.90;69.40
4314;DHT22;2170;48.794;9.182;2023-06-26T17:58:26;26.60;69.00
4314;DHT22;2170;48.794;9.182;2023-06-26T18:00:54;26.20;69.10
4314;DHT22;2170;48.794;9.182;2023-06-26T18:03:24;26.30;68.70
4314;DHT22;2170;48.794;9.182;2023-06-26T18:05:58;26.20;68.00
4314;DHT22;2170;48.794;9.182;2023-06-26T18:08:42;26.00;67.70
4314;DHT22;2170;48.794;9.182;2023-06-26T18:11:11;26.20;67.50
4314;DHT22;2170;48.794;9.182;2023-06-26T18:13:39;26.00;67.40
4314;DHT22;2170;48.794;9.182;2023-06-26T18:16:07;26.00;67.20
4314;DHT22;2170;48.794;9.182;2023-06-26T18:18:41;26.10;67.60
4314;DHT22;2170;48.794;9.182;2023-06-26T18:21:09;25.90;67.80
4314;DHT22;2170;48.794;9.182;2023-06-26T18:23:37;25.80;68.10
4314;DHT22;2170;48.794;9.182;2023-06-26T18:26:22;25.90;68.60
4314;DHT22;2170;48.794;9.182;2023-06-26T18:29:16;25.80;68.70
4314;DHT22;2170;48.794;9.182;2023-06-26T18:31:50;25.90;68.90
4314;DHT22;2170;48.794;9.182;2023-06-26T18:34:32;25.70;68.90
4314;DHT22;2170;48.794;9.182;2023-06-26T18:37:02;25.60;69.20
4314;DHT22;2170;48.794;9.182;2023-06-26T18:39:40;25.50;69.90
4314;DHT22;2170;48.794;9.182;2023-06-26T18:42:09;25.40;70.50
4314;DHT22;2170;48.794;9.182;2023-06-26T18:44:39;25.30;70.70
4314;DHT22;2170;48.794;9.182;2023-06-26T18:47:10;25.30;71.20
4314;DHT22;2170;48.794;9.182;2023-06-26T18:50:23;25.10;71.90
4314;DHT22;2170;48.794;9.182;2023-06-26T18:52:34;25.00;72.30
4314;DHT22;2170;48.794;9.182;2023-06-26T18:55:02;25.00;73.50
4314;DHT22;2170;48.794;9.182;2023-06-26T18:57:31;25.10;72.80
4314;DHT22;2170;48.794;9.182;2023-06-26T19:00:16;25.20;73.10
4314;DHT22;2170;48.794;9.182;2023-06-26T19:02:44;25.10;73.00
4314;DHT22;2170;48.794;9.182;2023-06-26T19:05:14;24.90;73.80
4314;DHT22;2170;48.794;9.182;2023-06-26T19:07:54;24.60;74.10
4314;DHT22;2170;48.794;9.182;2023-06-26T19:10:22;24.50;74.50
4314;DHT22;2170;48.794;9.182;2023-06-26T19:13:01;24.50;75.40
4314;DHT22;2170;48.794;9.182;2023-06-26T19:15:59;24.30;75.10
4314;DHT22;2170;48.794;9.182;2023-06-26T19:18:27;24.40;75.50
4314;DHT22;2170;48.794;9.182;2023-06-26T19:21:18;24.30;75.50
4314;DHT22;2170;48.794;9.182;2023-06-26T19:24:14;24.20;75.80
4314;DHT22;2170;48.794;9.182;2023-06-26T19:27:03;24.00;76.00
4314;DHT22;2170;48.794;9.182;2023-06-26T19:29:45;23.80;76.70
4314;DHT22;2170;48.794;9.182;2023-06-26T19:32:13;23.70;76.60
4314;DHT22;2170;48.794;9.182;2023-06-26T19:34:41;23.70;76.80
4314;DHT22;2170;48.794;9.182;2023-06-26T19:37:10;23.70;76.80
4314;DHT22;2170;48.794;9.182;2023-06-26T19:39:40;23.60;77.00
4314;DHT22;2170;48.794;9.182;2023-06-26T19:42:08;23.50;77.30
4314;DHT22;2170;48.794;9.182;2023-06-26T19:44:52;23.40;77.40
4314;DHT22;2170;48.794;9.182;2023-06-26T19:47:31;23.30;77.60
4314;DHT22;2170;48.794;9.182;2023-06-26T19:50:13;23.30;77.80
4314;DHT22;2170;48.794;9.182;2023-06-26T19:52:44;23.20;78.00
4314;DHT22;2170;48.794;9.182;2023-06-26T19:55:31;23.10;78.40
4314;DHT22;2170;48.794;9.182;2023-06-26T19:58:02;23.00;78.60
4314;DHT22;2170;48.794;9.182;2023-06-26T20:00:51;23.00;78.70
4314;DHT22;2170;48.794;9.182;2023-06-26T20:03:33;22.90;78.70
4314;DHT22;2170;48.794;9.182;2023-06-26T20:06:18;22.80;78.90
4314;DHT22;2170;48.794;9.182;2023-06-26T20:09:03;22.80;79.20
4314;DHT22;2170;48.794;9.182;2023-06-26T20:12:21;22.70;79.50
4314;DHT22;2170;48.794;9.182;2023-06-26T20:15:13;22.70;79.70
4314;DHT22;2170;48.794;9.182;2023-06-26T20:18:01;22.70;80.00
4314;DHT22;2170;48.794;9.182;2023-06-26T20:20:39;22.60;80.20
4314;DHT22;2170;48.794;9.182;2023-06-26T20:23:21;22.50;80.50
4314;DHT22;2170;48.794;9.182;2023-06-26T20:29:26;22.30;81.30
4314;DHT22;2170;48.794;9.182;2023-06-26T20:31:53;22.30;81.50
4314;DHT22;2170;48.794;9.182;2023-06-26T20:34:43;22.30;81.70
4314;DHT22;2170;48.794;9.182;2023-06-26T20:42:09;22.20;82.50
4314;DHT22;2170;48.794;9.182;2023-06-26T20:44:13;22.10;83.10
4314;DHT22;2170;48.794;9.182;2023-06-26T20:46:50;22.10;83.50
4314;DHT22;2170;48.794;9.182;2023-06-26T20:49:35;22.00;83.80
4314;DHT22;2170;48.794;9.182;2023-06-26T20:52:07;22.00;84.40
4314;DHT22;2170;48.794;9.182;2023-06-26T20:54:42;21.90;84.70
4314;DHT22;2170;48.794;9.182;2023-06-26T20:57:16;21.90;85.10
4314;DHT22;2170;48.794;9.182;2023-06-26T20:59:44;21.90;85.50
4314;DHT22;2170;48.794;9.182;2023-06-26T21:02:13;21.80;85.80
4314;DHT22;2170;48.794;9.182;2023-06-26T21:04:57;21.80;86.30
4314;DHT22;2170;48.794;9.182;2023-06-26T21:07:34;21.70;86.60
4314;DHT22;2170;48.794;9.182;2023-06-26T21:10:06;21.70;87.00
4314;DHT22;2170;48.794;9.182;2023-06-26T21:12:44;21.70;87.20
4314;DHT22;2170;48.794;9.182;2023-06-26T21:15:27;21.60;87.70
4314;DHT22;2170;48.794;9.182;2023-06-26T21:18:14;21.60;87.80
4314;DHT22;2170;48.794;9.182;2023-06-26T21:20:51;21.60;88.10
4314;DHT22;2170;48.794;9.182;2023-06-26T21:27:20;21.50;88.60
4314;DHT22;2170;48.794;9.182;2023-06-26T21:30:39;21.50;89.10
4314;DHT22;2170;48.794;9.182;2023-06-26T21:33:25;21.50;89.30
4314;DHT22;2170;48.794;9.182;2023-06-26T21:36:12;21.40;89.60
4314;DHT22;2170;48.794;9.182;2023-06-26T21:39:12;21.40;89.90
4314;DHT22;2170;48.794;9.182;2023-06-26T21:42:46;21.30;90.00
4314;DHT22;2170;48.794;9.182;2023-06-26T21:46:38;21.30;90.20
4314;DHT22;2170;48.794;9.182;2023-06-26T21:48:47;21.30;90.50
4314;DHT22;2170;48.794;9.182;2023-06-26T21:51:44;21.20;90.60
4314;DHT22;2170;48.794;9.182;2023-06-26T21:57:41;21.10;91.00
4314;DHT22;2170;48.794;9.182;2023-06-26T22:00:42;21.10;91.30
4314;DHT22;2170;48.794;9.182;2023-06-26T22:03:26;21.10;91.40
4314;DHT22;2170;48.794;9.182;2023-06-26T22:06:14;21.00;91.50
4314;DHT22;2170;48.794;9.182;2023-06-26T22:08:56;21.00;91.70
4314;DHT22;2170;48.794;9.182;2023-06-26T22:11:44;20.90;91.80
4314;DHT22;2170;48.794;9.182;2023-06-26T22:14:50;20.90;91.90
4314;DHT22;2170;48.794;9.182;2023-06-26T22:18:09;20.50;91.90
4314;DHT22;2170;48.794;9.182;2023-06-26T22:21:06;20.90;92.20
4314;DHT22;2170;48.794;9.182;2023-06-26T22:23:59;20.80;92.30
4314;DHT22;2170;48.794;9.182;2023-06-26T22:27:06;20.90;92.30
4314;DHT22;2170;48.794;9.182;2023-06-26T22:30:04;21.00;92.60
4314;DHT22;2170;48.794;9.182;2023-06-26T22:32:57;20.90;92.60
4314;DHT22;2170;48.794;9.182;2023-06-26T22:35:47;20.90;92.80
4314;DHT22;2170;48.794;9.182;2023-06-26T22:38:56;20.80;92.90
4314;DHT22;2170;48.794;9.182;2023-06-26T22:41:45;20.90;93.00
4314;DHT22;2170;48.794;9.182;2023-06-26T22:47:58;20.90;93.30
4314;DHT22;2170;48.794;9.182;2023-06-26T22:53:37;20.90;93.60
4314;DHT22;2170;48.794;9.182;2023-06-26T22:56:17;20.80;93.70
4314;DHT22;2170;48.794;9.182;2023-06-26T22:58:55;20.70;93.90
4314;DHT22;2170;48.794;9.182;2023-06-26T23:01:25;20.70;94.20
4314;DHT22;2170;48.794;9.182;2023-06-26T23:04:00;20.60;94.20
4314;DHT22;2170;48.794;9.182;2023-06-26T23:06:52;20.50;94.50
4314;DHT22;2170;48.794;9.182;2023-06-26T23:09:42;20.40;94.70
4314;DHT22;2170;48.794;9.182;2023-06-26T23:12:47;20.50;94.90
4314;DHT22;2170;48.794;9.182;2023-06-26T23:15:33;20.40;95.10
4314;DHT22;2170;48.794;9.182;2023-06-26T23:18:15;20.30;95.20
4314;DHT22;2170;48.794;9.182;2023-06-26T23:20:49;20.40;95.50
4314;DHT22;2170;48.794;9.182;2023-06-26T23:23:31;20.30;95.50
4314;DHT22;2170;48.794;9.182;2023-06-26T23:26:23;20.30;95.60
4314;DHT22;2170;48.794;9.182;2023-06-26T23:29:33;20.30;95.70
4314;DHT22;2170;48.794;9.182;2023-06-26T23:35:22;20.20;96.20
4314;DHT22;2170;48.794;9.182;2023-06-26T23:38:20;20.20;96.40
4314;DHT22;2170;48.794;9.182;2023-06-26T23:41:03;20.10;96.70
4314;DHT22;2170;48.794;9.182;2023-06-26T23:43:49;20.00;96.80
4314;DHT22;2170;48.794;9.182;2023-06-26T23:50:33;20.00;97.20
4314;DHT22;2170;48.794;9.182;2023-06-26T23:53:40;20.00;97.40
4314;DHT22;2170;48.794;9.182;2023-06-26T23:56:46;20.00;97.60
